createdAt,value
2023-04-05T00:00:07.769Z,-3.10
2023-04-05T00:05:18.083Z,-3.40
2023-04-05T00:10:25.485Z,-3.40
2023-04-05T00:15:33.541Z,-3.70
2023-04-05T00:20:41.393Z,-3.70
2023-04-05T00:25:49.651Z,-3.60
2023-04-05T00:30:57.373Z,-3.50
2023-04-05T00:36:15.093Z,-3.50
2023-04-05T00:41:22.115Z,-3.30
2023-04-05T00:46:28.653Z,-3.30
2023-04-05T00:51:36.807Z,-3.60
2023-04-05T00:56:45.939Z,-3.50
2023-04-05T01:02:10.765Z,-3.40
2023-04-05T01:07:31.611Z,-3.20
2023-04-05T01:12:42.287Z,-3.40
2023-04-05T01:17:49.974Z,-3.20
2023-04-05T01:23:34.970Z,-2.80
2023-04-05T01:29:25.858Z,-2.80
2023-04-05T01:34:46.743Z,-3.20
2023-04-05T01:40:00.193Z,-3.30
2023-04-05T01:45:08.984Z,-3.10
2023-04-05T01:50:18.469Z,-2.80
2023-04-05T01:55:26.082Z,-2.70
2023-04-05T02:00:33.579Z,-2.50
2023-04-05T02:05:42.173Z,-2.50
2023-04-05T02:10:50.029Z,-2.40
2023-04-05T02:15:57.635Z,-2.40
2023-04-05T02:21:08.598Z,-2.50
2023-04-05T02:26:16.250Z,-2.30
2023-04-05T02:31:23.916Z,-2.30
2023-04-05T02:36:31.061Z,-2.20
2023-04-05T02:41:39.342Z,-2.10
2023-04-05T02:46:46.648Z,-2.10
2023-04-05T02:51:52.859Z,-2.00
2023-04-05T02:57:01.231Z,-2.40
2023-04-05T03:02:11.480Z,-2.40
2023-04-05T03:07:19.279Z,-2.30
2023-04-05T03:12:26.868Z,-2.50
2023-04-05T03:17:34.856Z,-2.60
2023-04-05T03:22:43.399Z,-2.80
2023-04-05T03:27:52.240Z,-2.70
2023-04-05T03:33:00.815Z,-2.90
2023-04-05T03:38:08.238Z,-3.00
2023-04-05T03:43:16.392Z,-3.10
2023-04-05T03:48:24.236Z,-3.20
2023-04-05T03:53:31.140Z,-3.20
2023-04-05T03:58:40.214Z,-3.40
2023-04-05T04:03:47.467Z,-3.70
2023-04-05T04:08:55.405Z,-3.60
2023-04-05T04:14:02.762Z,-3.60
2023-04-05T04:19:09.757Z,-3.80
2023-04-05T04:24:18.899Z,-3.90
2023-04-05T04:29:30.765Z,-3.90
2023-04-05T04:34:38.509Z,-3.80
2023-04-05T04:39:48.040Z,-3.90
2023-04-05T04:44:56.396Z,-3.90
2023-04-05T04:50:05.234Z,-4.20
2023-04-05T04:55:15.054Z,-4.00
2023-04-05T05:00:24.983Z,-3.70
2023-04-05T05:05:33.576Z,-3.50
2023-04-05T05:10:42.558Z,-3.40
2023-04-05T05:15:50.558Z,-3.10
2023-04-05T05:21:00.032Z,-3.00
2023-04-05T05:26:07.853Z,-2.80
2023-04-05T05:31:14.923Z,-2.70
2023-04-05T05:36:22.217Z,-2.50
2023-04-05T05:41:29.157Z,-2.60
2023-04-05T05:46:36.258Z,-2.40
2023-04-05T05:51:44.631Z,-2.10
2023-04-05T05:56:52.398Z,-1.90
2023-04-05T06:01:58.959Z,-1.80
2023-04-05T06:07:07.709Z,-1.80
2023-04-05T06:12:15.639Z,-1.70
2023-04-05T06:17:23.227Z,-1.30
2023-04-05T06:22:31.132Z,-1.20
2023-04-05T06:27:39.580Z,-0.70
2023-04-05T06:32:50.687Z,-0.70
2023-04-05T06:37:58.489Z,-0.50
2023-04-05T06:43:05.693Z,-0.10
2023-04-05T06:48:13.833Z,0.10
2023-04-05T06:53:20.969Z,0.30
2023-04-05T06:58:29.174Z,0.50
2023-04-05T07:03:37.622Z,0.90
2023-04-05T07:08:45.028Z,1.10
2023-04-05T07:13:52.080Z,1.40
2023-04-05T07:18:59.645Z,1.80
2023-04-05T07:24:06.981Z,2.10
2023-04-05T07:29:14.317Z,2.40
2023-04-05T07:34:21.609Z,2.50
2023-04-05T07:39:29.343Z,2.70
2023-04-05T07:44:36.086Z,2.80
2023-04-05T07:49:43.642Z,3.20
2023-04-05T07:54:50.184Z,3.70
2023-04-05T07:59:56.970Z,3.60
2023-04-05T08:05:04.194Z,3.90
2023-04-05T08:10:12.299Z,4.00
2023-04-05T08:15:19.408Z,4.30
2023-04-05T08:20:27.015Z,4.40
2023-04-05T08:25:34.442Z,4.90
2023-04-05T08:30:41.758Z,5.00
2023-04-05T08:35:50.420Z,4.50
2023-04-05T08:40:57.192Z,5.20
2023-04-05T08:46:08.908Z,5.30
2023-04-05T08:51:17.597Z,5.10
2023-04-05T08:56:31.201Z,5.30
2023-04-05T09:01:47.717Z,5.20
2023-04-05T09:06:57.712Z,5.40
2023-04-05T09:12:07.309Z,5.40
2023-04-05T09:17:15.391Z,4.80
2023-04-05T09:22:24.618Z,4.40
2023-04-05T09:27:32.340Z,4.10
2023-04-05T09:32:39.142Z,3.70
2023-04-05T09:37:56.584Z,3.90
2023-04-05T09:43:04.356Z,4.00
2023-04-05T09:48:14.186Z,4.10
2023-04-05T09:53:21.478Z,4.50
2023-04-05T09:58:33.450Z,4.90
2023-04-05T10:03:49.563Z,4.50
2023-04-05T10:08:57.330Z,4.50
2023-04-05T10:14:07.170Z,4.40
2023-04-05T10:19:40.513Z,4.10
2023-04-05T10:24:56.767Z,4.10
2023-04-05T10:30:10.236Z,4.20
2023-04-05T10:35:21.407Z,4.30
2023-04-05T10:40:32.859Z,5.80
2023-04-05T10:45:43.076Z,5.00
2023-04-05T10:50:50.985Z,5.80
2023-04-05T10:55:59.782Z,6.70
2023-04-05T11:01:07.762Z,6.30
2023-04-05T11:06:23.247Z,5.60
2023-04-05T11:11:32.819Z,5.40
2023-04-05T11:16:42.936Z,6.40
2023-04-05T11:21:56.546Z,5.70
2023-04-05T11:27:05.078Z,5.80
2023-04-05T11:32:17.049Z,6.40
2023-04-05T11:37:26.495Z,6.00
2023-04-05T11:42:33.535Z,6.40
2023-04-05T11:47:42.052Z,6.70
2023-04-05T11:53:11.520Z,6.40
2023-04-05T11:58:23.406Z,5.60
2023-04-05T12:03:32.369Z,5.50
2023-04-05T12:08:53.994Z,5.20
2023-04-05T12:14:03.188Z,5.10
2023-04-05T12:19:10.597Z,5.70
2023-04-05T12:24:18.022Z,5.90
2023-04-05T12:29:26.038Z,6.30
2023-04-05T12:34:33.569Z,7.70
2023-04-05T12:39:41.296Z,7.60
2023-04-05T12:44:51.889Z,6.80
2023-04-05T12:49:59.296Z,6.70
2023-04-05T12:55:10.067Z,7.00
2023-04-05T13:00:17.974Z,7.20
2023-04-05T13:05:28.199Z,7.90
2023-04-05T13:10:35.232Z,7.40
2023-04-05T13:15:42.876Z,7.60
2023-04-05T13:20:49.894Z,7.70
2023-04-05T13:25:57.153Z,6.70
2023-04-05T13:31:06.906Z,7.10
2023-04-05T13:36:14.092Z,7.90
2023-04-05T13:41:21.556Z,7.30
2023-04-05T13:46:27.218Z,6.40
2023-04-05T13:51:35.420Z,5.80
2023-04-05T13:56:42.442Z,5.40
2023-04-05T14:01:50.160Z,5.40
2023-04-05T14:06:57.922Z,5.00
2023-04-05T14:12:05.358Z,5.90
2023-04-05T14:17:13.384Z,6.60
2023-04-05T14:22:21.961Z,6.70
2023-04-05T14:27:29.830Z,5.90
2023-04-05T14:32:37.149Z,5.00
2023-04-05T14:37:46.158Z,4.80
2023-04-05T14:42:53.744Z,4.70
2023-04-05T14:48:01.354Z,4.90
2023-04-05T14:53:10.487Z,5.20
2023-04-05T14:58:19.235Z,5.70
2023-04-05T15:03:28.001Z,5.20
2023-04-05T15:08:36.211Z,4.50
2023-04-05T15:13:42.981Z,4.30
2023-04-05T15:18:55.192Z,4.10
2023-04-05T15:24:03.444Z,4.00
2023-04-05T15:29:12.742Z,4.10
2023-04-05T15:34:20.184Z,4.50
2023-04-05T15:39:28.851Z,4.30
2023-04-05T15:44:36.750Z,4.40
2023-04-05T15:49:44.808Z,4.30
2023-04-05T15:54:52.447Z,4.50
2023-04-05T15:59:59.912Z,4.70
2023-04-05T16:05:07.648Z,4.60
2023-04-05T16:10:14.577Z,4.20
2023-04-05T16:15:22.974Z,4.30
2023-04-05T16:20:31.022Z,4.40
2023-04-05T16:25:38.416Z,4.30
2023-04-05T16:30:47.559Z,4.30
2023-04-05T16:35:55.280Z,4.30
2023-04-05T16:41:02.390Z,4.30
2023-04-05T16:46:10.217Z,4.20
2023-04-05T16:51:17.946Z,4.30
2023-04-05T16:56:25.807Z,4.20
2023-04-05T17:01:33.812Z,4.00
2023-04-05T17:06:43.270Z,3.80
2023-04-05T17:11:51.981Z,3.70
2023-04-05T17:17:00.654Z,3.60
2023-04-05T17:22:07.794Z,3.50
2023-04-05T17:27:15.183Z,3.40
2023-04-05T17:32:21.948Z,3.30
2023-04-05T17:37:29.338Z,3.30
2023-04-05T17:42:36.856Z,3.40
2023-04-05T17:47:44.468Z,3.20
2023-04-05T17:52:51.907Z,2.80
2023-04-05T17:57:59.029Z,2.50
2023-04-05T18:03:08.584Z,2.50
2023-04-05T18:08:14.670Z,2.50
2023-04-05T18:13:21.615Z,2.40
2023-04-05T18:18:29.241Z,2.30
2023-04-05T18:23:37.256Z,2.20
2023-04-05T18:28:45.549Z,2.10
2023-04-05T18:33:52.793Z,2.00
2023-04-05T18:39:04.856Z,2.10
2023-04-05T18:44:13.640Z,2.10
2023-04-05T18:49:23.733Z,2.00
2023-04-05T18:54:36.859Z,1.90
2023-04-05T18:59:45.216Z,2.00
2023-04-05T19:04:55.282Z,2.10
2023-04-05T19:10:01.903Z,2.30
2023-04-05T19:15:10.707Z,2.10
2023-04-05T19:20:17.747Z,2.10
2023-04-05T19:25:25.666Z,2.20
2023-04-05T19:30:34.416Z,1.80
2023-04-05T19:35:43.388Z,2.00
2023-04-05T19:40:51.152Z,1.80
2023-04-05T19:46:02.568Z,1.70
2023-04-05T19:51:12.612Z,1.70
2023-04-05T19:56:27.694Z,1.70
2023-04-05T20:01:40.719Z,1.50
2023-04-05T20:06:57.553Z,1.70
2023-04-05T20:12:07.067Z,1.70
2023-04-05T20:17:16.745Z,1.60
2023-04-05T20:22:24.565Z,1.50
2023-04-05T20:27:32.639Z,1.70
2023-04-05T20:32:40.922Z,1.80
2023-04-05T20:37:49.916Z,1.60
2023-04-05T20:42:58.141Z,1.40
2023-04-05T20:48:06.104Z,1.30
2023-04-05T20:53:14.422Z,1.20
2023-04-05T20:58:23.150Z,1.20
2023-04-05T21:03:34.825Z,1.10
2023-04-05T21:08:44.252Z,1.00
2023-04-05T21:13:51.449Z,0.90
2023-04-05T21:18:58.672Z,0.90
2023-04-05T21:24:08.999Z,0.70
2023-04-05T21:29:16.625Z,0.80
2023-04-05T21:34:24.525Z,0.70
2023-04-05T21:39:34.678Z,0.50
2023-04-05T21:44:42.618Z,0.50
2023-04-05T21:49:50.537Z,0.50
2023-04-05T21:54:58.460Z,0.50
2023-04-05T22:00:09.321Z,0.40
2023-04-05T22:05:29.528Z,0.10
2023-04-05T22:10:27.639Z,-0.20
2023-04-05T22:15:34.959Z,-0.20
2023-04-05T22:20:41.154Z,-0.10
2023-04-05T22:25:48.560Z,-0.20
2023-04-05T22:30:56.284Z,-0.20
2023-04-05T22:36:03.677Z,-0.40
2023-04-05T22:41:10.885Z,-0.40
2023-04-05T22:46:19.397Z,-0.40
2023-04-05T22:51:26.980Z,-0.50
2023-04-05T22:56:34.419Z,-0.50
2023-04-05T23:01:42.207Z,-1.00
2023-04-05T23:06:49.548Z,-0.60
2023-04-05T23:11:56.838Z,-0.50
2023-04-05T23:17:06.865Z,-1.20
2023-04-05T23:22:15.090Z,-1.00
2023-04-05T23:27:23.196Z,-0.70
2023-04-05T23:32:30.499Z,-0.60
2023-04-05T23:37:38.250Z,-0.70
2023-04-05T23:42:47.146Z,-1.50
2023-04-05T23:47:56.221Z,-1.50
2023-04-05T23:53:03.294Z,-1.10
2023-04-05T23:58:11.238Z,-1.20
